Terminal Aerodrome Forecast
Issued by NWS

Home | Current Version | Previous Version | Graphics & Text | Print | Product List | Glossary On
Versions: 1 2 3 4 5 6 7 8 9 10 11 12 13 14 15 16
000
FTUS43 KFGF 270709 AAA
TAFBJI
TAF AMD
KBJI 270709Z 2707/2806 VRB03KT P6SM SCT130
      TEMPO 2709/2712 3SM BR
     FM271400 VRB03KT P6SM SCT030=

USA.gov is the U.S. government's official web portal to all federal, state and local government web resources and services.